Time;durP1;ratioP1;P1;durP2;ratioP2;P2;SDS_P1;SDS_P2;PMS_P1;PMS_P2;Temp;Humidity;BMP_temperature;BMP_pressure;BME280_temperature;BME280_humidity;BME280_pressure;Samples;Min_cycle;Max_cycle;Signal;HPM_P1;HPM_P2
2023/01/24 00:00:48;;;;;;;22.08;10.35;;;;;;;;;;6161916;23;20343;-87
2023/01/24 00:03:15;;;;;;;25.70;9.70;;;;;;;;;;6197766;23;20424;-91
2023/01/24 00:05:41;;;;;;;22.20;8.30;;;;;;;;;;6137304;23;20009;-90
2023/01/24 00:08:06;;;;;;;25.92;9.57;;;;;;;;;;6187962;23;20005;-86
2023/01/24 00:10:32;;;;;;;24.02;10.45;;;;;;;;;;6188866;23;20005;-88
2023/01/24 00:12:58;;;;;;;18.50;8.15;;;;;;;;;;6196085;23;20012;-88
2023/01/24 00:15:23;;;;;;;21.70;9.07;;;;;;;;;;6197305;23;20079;-89
2023/01/24 00:17:49;;;;;;;20.25;8.63;;;;;;;;;;6187737;23;20005;-91
2023/01/24 00:20:15;;;;;;;22.55;9.20;;;;;;;;;;6163562;23;20020;-89
2023/01/24 00:22:40;;;;;;;20.95;8.95;;;;;;;;;;6199245;23;20091;-88
2023/01/24 00:25:06;;;;;;;16.17;7.80;;;;;;;;;;6163131;23;20001;-88
2023/01/24 00:27:31;;;;;;;20.58;8.25;;;;;;;;;;6188077;23;20464;-91
2023/01/24 00:29:57;;;;;;;21.48;9.48;;;;;;;;;;6162539;23;20008;-90
2023/01/24 00:32:23;;;;;;;21.83;9.13;;;;;;;;;;6193004;23;20012;-90
2023/01/24 00:34:48;;;;;;;18.33;8.15;;;;;;;;;;6190721;23;20415;-89
2023/01/24 00:37:14;;;;;;;20.90;8.50;;;;;;;;;;6186814;23;20071;-88
2023/01/24 00:39:39;;;;;;;19.85;10.35;;;;;;;;;;6185347;23;20011;-89
2023/01/24 00:42:05;;;;;;;24.00;9.05;;;;;;;;;;6200313;23;20005;-86
2023/01/24 00:44:30;;;;;;;22.25;9.50;;;;;;;;;;6188714;23;20329;-88
2023/01/24 00:46:55;;;;;;;19.65;7.25;;;;;;;;;;6187978;23;20060;-88
2023/01/24 00:49:21;;;;;;;20.17;9.23;;;;;;;;;;6189174;23;20047;-90
2023/01/24 00:51:46;;;;;;;22.88;9.52;;;;;;;;;;6187951;23;20023;-90
2023/01/24 00:54:12;;;;;;;20.42;8.68;;;;;;;;;;6188370;23;20451;-90
2023/01/24 00:56:37;;;;;;;17.80;7.50;;;;;;;;;;6162135;23;20016;-91
2023/01/24 00:59:03;;;;;;;25.55;9.70;;;;;;;;;;6189651;23;20005;-89
2023/01/24 01:01:28;;;;;;;28.52;9.95;;;;;;;;;;6202931;23;20328;-89
2023/01/24 01:03:55;;;;;;;17.95;8.40;;;;;;;;;;6161175;23;20409;-90
2023/01/24 01:06:21;;;;;;;14.90;7.28;;;;;;;;;;6162492;23;20463;-90
2023/01/24 01:08:46;;;;;;;18.70;8.52;;;;;;;;;;6188516;23;20009;-90
2023/01/24 01:11:11;;;;;;;17.67;6.13;;;;;;;;;;6186352;23;19997;-91
2023/01/24 01:13:37;;;;;;;18.90;8.52;;;;;;;;;;6186451;23;20032;-89
2023/01/24 01:16:10;;;;;;;21.20;8.25;;;;;;;;;;6136430;23;20009;-91
2023/01/24 01:18:36;;;;;;;19.65;9.02;;;;;;;;;;6163864;23;20063;-89
2023/01/24 01:21:02;;;;;;;19.83;8.35;;;;;;;;;;6176502;23;20001;-90
2023/01/24 01:23:28;;;;;;;22.33;8.80;;;;;;;;;;6185682;23;20008;-89
2023/01/24 01:25:53;;;;;;;22.33;8.40;;;;;;;;;;6161250;23;20460;-89
2023/01/24 01:28:19;;;;;;;13.40;6.45;;;;;;;;;;6186420;23;20009;-90
2023/01/24 01:30:51;;;;;;;23.67;8.88;;;;;;;;;;6185969;23;20001;-88
2023/01/24 01:33:16;;;;;;;33.17;10.30;;;;;;;;;;6161760;23;20012;-88
2023/01/24 01:35:42;;;;;;;21.33;8.25;;;;;;;;;;6187592;23;20005;-90
2023/01/24 01:38:07;;;;;;;17.10;6.90;;;;;;;;;;6190113;23;20032;-90
2023/01/24 01:40:33;;;;;;;25.35;11.35;;;;;;;;;;6203739;23;20008;-89
2023/01/24 01:42:58;;;;;;;15.27;7.85;;;;;;;;;;6186303;23;20009;-89
2023/01/24 01:45:38;;;;;;;25.77;8.50;;;;;;;;;;6182087;23;19993;-90
2023/01/24 01:48:23;;;;;;;19.73;7.97;;;;;;;;;;6183021;23;20434;-90
2023/01/24 01:51:12;;;;;;;12.52;6.20;;;;;;;;;;6190149;23;20063;-90
2023/01/24 01:54:01;;;;;;;16.73;7.30;;;;;;;;;;6166484;23;20009;-90
2023/01/24 01:56:31;;;;;;;16.38;7.80;;;;;;;;;;6190469;23;20005;-90
2023/01/24 01:58:59;;;;;;;20.38;8.52;;;;;;;;;;6176550;23;20001;-89
2023/01/24 02:01:25;;;;;;;18.40;8.20;;;;;;;;;;6139288;23;20005;-89
2023/01/24 02:03:53;;;;;;;26.52;9.73;;;;;;;;;;6162978;23;20005;-86
2023/01/24 02:06:28;;;;;;;20.23;8.50;;;;;;;;;;6161547;23;20001;-91
2023/01/24 02:08:53;;;;;;;23.75;8.48;;;;;;;;;;6185935;23;20036;-90
2023/01/24 02:16:47;;;;;;;18.80;7.03;;;;;;;;;;6165825;23;20054;-89
2023/01/24 02:19:28;;;;;;;21.27;8.00;;;;;;;;;;6200552;23;20032;-87
2023/01/24 02:21:56;;;;;;;20.42;8.90;;;;;;;;;;6185821;23;19993;-87
2023/01/24 02:24:25;;;;;;;20.80;7.43;;;;;;;;;;6136890;23;20009;-90
2023/01/24 02:26:50;;;;;;;14.48;5.40;;;;;;;;;;6185460;23;20009;-89
2023/01/24 02:29:16;;;;;;;20.02;6.97;;;;;;;;;;6197653;23;19996;-88
2023/01/24 02:31:58;;;;;;;27.52;7.53;;;;;;;;;;6193107;23;20519;-90
2023/01/24 02:34:24;;;;;;;13.88;5.13;;;;;;;;;;6185561;23;20016;-89
2023/01/24 02:36:55;;;;;;;20.52;6.85;;;;;;;;;;6162223;23;20008;-89
2023/01/24 02:39:40;;;;;;;16.65;7.57;;;;;;;;;;6171312;23;20005;-89
2023/01/24 02:42:08;;;;;;;11.38;5.03;;;;;;;;;;6165411;23;20005;-90
2023/01/24 02:44:51;;;;;;;17.48;6.93;;;;;;;;;;6159299;23;20001;-89
2023/01/24 02:47:16;;;;;;;11.60;5.72;;;;;;;;;;6137056;23;20432;-89
2023/01/24 02:49:42;;;;;;;15.20;6.15;;;;;;;;;;6185857;23;20059;-91
2023/01/24 02:54:53;;;;;;;16.40;7.22;;;;;;;;;;6185051;23;20012;-87
2023/01/24 03:00:07;;;;;;;16.08;6.35;;;;;;;;;;6186746;23;20059;-88
2023/01/24 03:02:33;;;;;;;12.88;6.43;;;;;;;;;;6184484;23;20029;-88
2023/01/24 03:04:58;;;;;;;13.57;5.50;;;;;;;;;;6159347;23;19997;-90
2023/01/24 03:07:23;;;;;;;13.95;6.82;;;;;;;;;;6183759;23;20488;-90
2023/01/24 03:09:49;;;;;;;15.63;6.82;;;;;;;;;;6184050;23;20348;-90
2023/01/24 03:36:51;;;;;;;15.70;8.77;;;;;;;;;;6198676;23;20035;-90
2023/01/24 03:42:00;;;;;;;14.02;7.05;;;;;;;;;;6187891;23;20425;-90
2023/01/24 03:44:26;;;;;;;11.38;5.22;;;;;;;;;;6191533;23;20005;-87
2023/01/24 03:46:51;;;;;;;8.20;4.45;;;;;;;;;;6198777;23;20019;-87
2023/01/24 03:49:17;;;;;;;12.95;5.60;;;;;;;;;;6184207;23;20332;-89
2023/01/24 03:54:26;;;;;;;17.73;5.78;;;;;;;;;;6190760;23;20447;-90
2023/01/24 03:56:52;;;;;;;9.68;3.95;;;;;;;;;;6195434;23;20005;-89
2023/01/24 03:59:17;;;;;;;11.95;6.10;;;;;;;;;;6185449;23;20001;-87
2023/01/24 04:01:43;;;;;;;13.40;6.53;;;;;;;;;;6159510;23;20005;-87
2023/01/24 04:04:08;;;;;;;10.70;5.68;;;;;;;;;;6183517;23;20084;-88
2023/01/24 04:06:33;;;;;;;15.90;6.22;;;;;;;;;;6186420;23;20203;-88
2023/01/24 04:08:59;;;;;;;14.52;6.40;;;;;;;;;;6183895;23;19997;-92
2023/01/24 04:11:24;;;;;;;9.18;4.15;;;;;;;;;;6183337;23;20005;-89
2023/01/24 04:13:50;;;;;;;14.65;6.35;;;;;;;;;;6158949;23;20028;-88
2023/01/24 04:16:15;;;;;;;14.95;6.45;;;;;;;;;;6198290;23;20012;-87
2023/01/24 04:18:43;;;;;;;13.15;5.00;;;;;;;;;;6184330;23;19997;-91
2023/01/24 04:21:08;;;;;;;15.88;6.78;;;;;;;;;;6184057;23;20005;-90
2023/01/24 04:23:33;;;;;;;17.15;6.82;;;;;;;;;;6184699;23;20142;-87
2023/01/24 04:26:00;;;;;;;14.70;6.40;;;;;;;;;;6182943;23;20004;-90
2023/01/24 04:28:26;;;;;;;13.55;6.78;;;;;;;;;;6182300;23;20028;-86
2023/01/24 04:30:58;;;;;;;26.95;9.80;;;;;;;;;;6159391;23;20012;-89
2023/01/24 04:33:24;;;;;;;10.88;4.90;;;;;;;;;;6159649;23;20076;-87
2023/01/24 04:35:50;;;;;;;15.93;7.68;;;;;;;;;;6203834;23;20005;-88
2023/01/24 04:38:15;;;;;;;13.52;5.97;;;;;;;;;;6187058;23;20072;-88
2023/01/24 04:40:40;;;;;;;16.75;6.03;;;;;;;;;;6160173;23;20005;-87
2023/01/24 04:43:06;;;;;;;12.45;5.43;;;;;;;;;;6200974;23;19989;-88
2023/01/24 04:45:32;;;;;;;14.90;7.60;;;;;;;;;;6200672;23;20005;-86
2023/01/24 04:47:57;;;;;;;14.93;5.68;;;;;;;;;;6199101;23;20075;-89
2023/01/24 04:50:23;;;;;;;16.23;7.32;;;;;;;;;;6186033;23;20440;-89
2023/01/24 04:52:51;;;;;;;17.92;7.60;;;;;;;;;;6190536;23;20035;-89
2023/01/24 04:55:17;;;;;;;17.52;8.10;;;;;;;;;;6206591;23;20004;-90
2023/01/24 04:57:43;;;;;;;17.75;7.72;;;;;;;;;;6160803;23;20041;-88
2023/01/24 05:00:09;;;;;;;18.67;8.32;;;;;;;;;;6185179;23;20001;-86
2023/01/24 05:02:35;;;;;;;14.85;6.90;;;;;;;;;;6186450;23;20009;-86
2023/01/24 05:05:00;;;;;;;23.63;8.70;;;;;;;;;;6185535;23;20052;-89
2023/01/24 05:07:26;;;;;;;19.48;8.45;;;;;;;;;;6184746;23;20416;-88
2023/01/24 05:09:51;;;;;;;15.82;7.35;;;;;;;;;;6135355;23;20009;-90
2023/01/24 05:12:17;;;;;;;18.13;8.35;;;;;;;;;;6160745;23;20448;-90
2023/01/24 05:14:42;;;;;;;22.30;9.93;;;;;;;;;;6165083;23;20016;-85
2023/01/24 05:17:08;;;;;;;19.15;8.77;;;;;;;;;;6187602;23;20337;-90
2023/01/24 05:19:33;;;;;;;20.25;7.55;;;;;;;;;;6186702;23;20040;-90
2023/01/24 05:22:00;;;;;;;26.23;9.73;;;;;;;;;;6185351;23;20001;-91
2023/01/24 05:24:25;;;;;;;18.95;9.73;;;;;;;;;;6185086;23;20286;-89
2023/01/24 05:26:51;;;;;;;18.40;7.85;;;;;;;;;;6160372;23;20097;-91
2023/01/24 05:29:16;;;;;;;13.50;6.47;;;;;;;;;;6136050;23;20009;-91
2023/01/24 05:31:42;;;;;;;19.55;8.07;;;;;;;;;;6186254;23;20052;-86
2023/01/24 05:34:07;;;;;;;15.27;6.72;;;;;;;;;;6192806;23;20028;-77
2023/01/24 05:36:33;;;;;;;19.30;7.78;;;;;;;;;;6134119;23;20004;-78
2023/01/24 05:38:58;;;;;;;11.85;5.95;;;;;;;;;;6158049;23;20013;-77
2023/01/24 05:41:24;;;;;;;18.65;6.75;;;;;;;;;;6182681;23;20071;-79
2023/01/24 05:43:49;;;;;;;18.98;6.78;;;;;;;;;;6178630;23;20040;-77
2023/01/24 05:46:17;;;;;;;20.83;8.52;;;;;;;;;;6182306;23;20043;-78
2023/01/24 05:48:42;;;;;;;19.00;8.60;;;;;;;;;;6154514;23;20013;-77
2023/01/24 05:51:17;;;;;;;18.02;7.35;;;;;;;;;;6190657;23;20012;-91
2023/01/24 05:53:50;;;;;;;20.52;8.45;;;;;;;;;;6198362;23;20012;-89
2023/01/24 05:56:20;;;;;;;21.40;8.63;;;;;;;;;;6195448;23;20013;-88
2023/01/24 05:58:46;;;;;;;;;;;;;;;;;;6169471;23;20104;-89
2023/01/24 06:01:19;;;;;;;20.70;8.35;;;;;;;;;;6164781;23;20576;-89
2023/01/24 06:03:48;;;;;;;17.40;6.72;;;;;;;;;;6185527;23;20005;-90
2023/01/24 06:06:16;;;;;;;17.25;7.53;;;;;;;;;;6191853;23;20009;-94
2023/01/24 06:08:42;;;;;;;16.60;8.75;;;;;;;;;;6190134;23;20016;-91
2023/01/24 06:11:10;;;;;;;17.75;8.82;;;;;;;;;;6190877;23;20005;-88
2023/01/24 06:13:43;;;;;;;15.98;5.32;;;;;;;;;;6199601;23;20005;-92
2023/01/24 06:16:15;;;;;;;9.68;4.85;;;;;;;;;;6165168;23;20320;-90
2023/01/24 06:18:45;;;;;;;14.45;7.18;;;;;;;;;;6197317;23;20035;-88
2023/01/24 06:21:49;;;;;;;15.43;7.20;;;;;;;;;;6175184;23;20028;-89
2023/01/24 06:24:21;;;;;;;16.40;7.45;;;;;;;;;;6193500;23;20048;-90
2023/01/24 06:26:49;;;;;;;13.95;5.60;;;;;;;;;;6189945;23;20076;-89
2023/01/24 06:29:15;;;;;;;12.07;6.40;;;;;;;;;;6189666;23;20005;-87
2023/01/24 06:32:11;;;;;;;13.88;6.10;;;;;;;;;;6194733;23;19991;-89
2023/01/24 06:34:58;;;;;;;17.00;7.35;;;;;;;;;;6166467;23;20027;-88
2023/01/24 06:37:36;;;;;;;10.05;5.38;;;;;;;;;;6192343;23;20427;-85
2023/01/24 06:40:13;;;;;;;17.27;8.05;;;;;;;;;;6194285;23;20547;-87
2023/01/24 06:42:39;;;;;;;12.82;6.18;;;;;;;;;;6143422;23;20015;-86
2023/01/24 06:45:08;;;;;;;19.45;8.75;;;;;;;;;;6198986;23;20005;-90
2023/01/24 06:47:34;;;;;;;12.73;5.35;;;;;;;;;;6199702;23;20005;-90
2023/01/24 06:49:59;;;;;;;13.40;6.78;;;;;;;;;;6201222;23;20048;-88
2023/01/24 06:52:36;;;;;;;14.95;7.38;;;;;;;;;;6153259;23;20005;-88
2023/01/24 06:55:09;;;;;;;16.08;7.68;;;;;;;;;;6198040;23;20009;-90
2023/01/24 06:58:02;;;;;;;19.25;9.05;;;;;;;;;;6200936;23;20013;-86
2023/01/24 07:00:30;;;;;;;13.50;6.50;;;;;;;;;;6147379;23;20009;-86
2023/01/24 07:03:07;;;;;;;21.48;8.88;;;;;;;;;;6196322;23;20004;-85
2023/01/24 07:05:33;;;;;;;24.63;8.02;;;;;;;;;;6174842;23;20009;-84
2023/01/24 07:13:21;;;;;;;12.25;5.53;;;;;;;;;;6230722;22;20051;-90
2023/01/24 07:15:47;;;;;;;15.00;7.00;;;;;;;;;;6203734;23;20011;-85
2023/01/24 07:18:27;;;;;;;10.90;5.07;;;;;;;;;;6232502;23;20048;-87
2023/01/24 07:20:54;;;;;;;18.83;8.27;;;;;;;;;;6215817;23;19999;-82
2023/01/24 07:23:27;;;;;;;18.00;8.68;;;;;;;;;;6210573;23;20000;-86
2023/01/24 07:25:53;;;;;;;19.30;8.88;;;;;;;;;;6205670;23;20329;-88
2023/01/24 07:31:33;;;;;;;17.77;8.27;;;;;;;;;;6186612;23;20021;-87
2023/01/24 07:33:58;;;;;;;21.75;9.00;;;;;;;;;;6192944;23;20005;-83
2023/01/24 07:45:50;;;;;;;24.17;9.68;;;;;;;;;;6191906;23;20072;-88
2023/01/24 07:48:19;;;;;;;23.70;9.90;;;;;;;;;;6166227;23;20013;-86
2023/01/24 07:50:44;;;;;;;24.00;9.75;;;;;;;;;;6140685;23;20012;-87
2023/01/24 07:53:10;;;;;;;21.63;10.05;;;;;;;;;;6169996;23;20005;-86
2023/01/24 07:55:41;;;;;;;17.13;8.63;;;;;;;;;;6172729;23;20092;-88
2023/01/24 07:58:07;;;;;;;19.55;10.35;;;;;;;;;;6202182;23;20009;-87
2023/01/24 08:00:32;;;;;;;23.02;10.70;;;;;;;;;;6205798;23;20033;-88
2023/01/24 08:02:58;;;;;;;19.50;9.65;;;;;;;;;;6157154;23;20008;-86
2023/01/24 08:05:24;;;;;;;19.70;8.25;;;;;;;;;;6155027;23;20005;-85
2023/01/24 08:07:59;;;;;;;21.40;9.32;;;;;;;;;;6203686;23;20009;-87
2023/01/24 08:10:35;;;;;;;21.35;9.27;;;;;;;;;;6157950;23;20013;-90
2023/01/24 08:13:03;;;;;;;21.27;9.10;;;;;;;;;;6152801;23;20562;-90
2023/01/24 08:15:35;;;;;;;15.43;5.72;;;;;;;;;;6205173;23;19993;-88
2023/01/24 08:18:04;;;;;;;25.77;9.70;;;;;;;;;;6154098;23;20032;-88
2023/01/24 08:20:38;;;;;;;15.45;7.35;;;;;;;;;;6153878;23;20005;-87
2023/01/24 08:23:03;;;;;;;19.60;9.15;;;;;;;;;;6143379;23;19997;-90
2023/01/24 08:26:18;;;;;;;25.98;11.63;;;;;;;;;;6193240;23;20474;-87
2023/01/24 08:29:02;;;;;;;20.95;9.50;;;;;;;;;;6172388;23;20009;-89
2023/01/24 08:31:40;;;;;;;16.33;7.88;;;;;;;;;;6141050;23;20006;-90
2023/01/24 08:34:05;;;;;;;19.63;9.27;;;;;;;;;;6168249;23;20012;-89
2023/01/24 08:36:49;;;;;;;18.15;8.13;;;;;;;;;;6142471;23;20410;-89
2023/01/24 08:39:15;;;;;;;17.80;7.35;;;;;;;;;;6140044;23;20075;-87
2023/01/24 08:41:43;;;;;;;23.65;12.02;;;;;;;;;;6157591;23;20024;-89
2023/01/24 08:44:08;;;;;;;18.08;8.95;;;;;;;;;;6163848;23;20016;-91
2023/01/24 08:46:34;;;;;;;19.98;9.35;;;;;;;;;;6161121;23;20429;-88
2023/01/24 08:49:02;;;;;;;21.50;9.20;;;;;;;;;;6107280;23;20002;-89
2023/01/24 08:55:37;;;;;;;20.30;9.30;;;;;;;;;;6163643;23;20041;-86
2023/01/24 08:58:03;;;;;;;19.58;9.27;;;;;;;;;;6102615;23;20460;-90
2023/01/24 09:03:42;;;;;;;16.75;7.60;;;;;;;;;;6158718;23;20020;-86
2023/01/24 09:06:10;;;;;;;19.88;7.50;;;;;;;;;;6157038;23;20035;-90
2023/01/24 09:08:40;;;;;;;14.18;6.10;;;;;;;;;;6113987;23;20033;-83
2023/01/24 09:11:05;;;;;;;16.50;7.70;;;;;;;;;;6160096;23;20017;-87
2023/01/24 09:13:32;;;;;;;16.88;7.50;;;;;;;;;;6162539;23;20608;-86
2023/01/24 09:16:01;;;;;;;16.67;7.38;;;;;;;;;;6157004;23;20067;-85
2023/01/24 09:18:36;;;;;;;11.20;5.65;;;;;;;;;;6131212;23;20014;-87
2023/01/24 09:21:02;;;;;;;11.55;5.47;;;;;;;;;;6133090;23;20009;-86
2023/01/24 09:23:28;;;;;;;12.20;6.53;;;;;;;;;;6154404;23;20023;-86
2023/01/24 09:26:11;;;;;;;15.70;7.38;;;;;;;;;;6157450;23;20010;-82
2023/01/24 09:28:40;;;;;;;19.05;9.45;;;;;;;;;;6141691;23;20437;-90
2023/01/24 09:31:09;;;;;;;15.93;7.30;;;;;;;;;;6089852;23;20006;-87
2023/01/24 09:33:34;;;;;;;19.55;7.55;;;;;;;;;;6121556;23;20337;-90
2023/01/24 09:36:01;;;;;;;16.35;6.93;;;;;;;;;;6135731;23;20124;-89
2023/01/24 09:38:28;;;;;;;15.00;6.38;;;;;;;;;;6162107;23;20417;-88
2023/01/24 09:41:18;;;;;;;17.38;6.95;;;;;;;;;;6115017;23;20010;-86
2023/01/24 09:43:51;;;;;;;20.05;7.60;;;;;;;;;;6166999;23;20360;-86
2023/01/24 09:46:38;;;;;;;23.75;8.55;;;;;;;;;;6136333;23;20442;-87
2023/01/24 09:49:08;;;;;;;22.20;7.05;;;;;;;;;;6136414;23;20005;-88
2023/01/24 09:51:34;;;;;;;17.55;7.78;;;;;;;;;;6164957;23;20007;-88
2023/01/24 09:54:02;;;;;;;17.75;8.38;;;;;;;;;;6139846;23;20421;-87
2023/01/24 09:56:36;;;;;;;19.42;8.48;;;;;;;;;;6111471;23;20004;-88
2023/01/24 09:59:27;;;;;;;27.27;10.52;;;;;;;;;;6109793;23;20001;-87
2023/01/24 10:02:39;;;;;;;13.95;6.50;;;;;;;;;;6172798;23;20061;-89
2023/01/24 10:05:11;;;;;;;17.83;8.00;;;;;;;;;;6140715;23;20088;-90
2023/01/24 10:07:59;;;;;;;20.77;9.68;;;;;;;;;;6112361;23;20013;-90
2023/01/24 10:10:50;;;;;;;22.30;10.18;;;;;;;;;;6149924;23;20064;-91
2023/01/24 10:13:42;;;;;;;;;;;;;;;;;;6167808;23;20055;-87
2023/01/24 10:16:13;;;;;;;25.33;11.85;;;;;;;;;;6095908;23;19904;-90
2023/01/24 10:19:01;;;;;;;23.55;9.82;;;;;;;;;;6160063;23;20002;-90
2023/01/24 10:21:32;;;;;;;27.35;10.23;;;;;;;;;;6106006;23;20496;-87
2023/01/24 10:24:00;;;;;;;21.35;10.27;;;;;;;;;;6136941;23;20072;-86
2023/01/24 10:26:35;;;;;;;18.02;8.35;;;;;;;;;;6111734;23;20001;-87
2023/01/24 10:29:12;;;;;;;14.60;7.18;;;;;;;;;;6087908;23;20016;-88
2023/01/24 10:31:44;;;;;;;28.58;13.75;;;;;;;;;;6113879;23;20016;-87
2023/01/24 10:34:39;;;;;;;18.90;7.78;;;;;;;;;;6144157;23;20001;-87
2023/01/24 10:37:19;;;;;;;12.50;6.72;;;;;;;;;;6169346;23;20005;-89
2023/01/24 10:39:45;;;;;;;;;;;;;;;;;;6165916;23;20006;-91
2023/01/24 10:42:27;;;;;;;20.05;9.15;;;;;;;;;;6132401;23;20370;-91
2023/01/24 10:44:54;;;;;;;17.35;7.55;;;;;;;;;;6130073;23;20049;-87
2023/01/24 10:47:38;;;;;;;20.38;9.77;;;;;;;;;;6129360;23;20016;-91
2023/01/24 10:50:11;;;;;;;23.98;9.85;;;;;;;;;;6156040;23;20012;-87
2023/01/24 10:52:37;;;;;;;19.38;9.23;;;;;;;;;;6132674;23;20095;-88
2023/01/24 10:55:28;;;;;;;23.70;10.70;;;;;;;;;;6139529;23;20005;-90
2023/01/24 10:57:54;;;;;;;22.70;10.82;;;;;;;;;;6111792;23;20047;-85
2023/01/24 11:03:34;;;;;;;24.10;11.60;;;;;;;;;;6152757;23;20009;-86
2023/01/24 11:06:00;;;;;;;22.23;10.05;;;;;;;;;;6139215;23;20005;-89
2023/01/24 11:08:32;;;;;;;29.60;13.23;;;;;;;;;;6162444;23;20041;-88
2023/01/24 11:10:59;;;;;;;24.67;10.93;;;;;;;;;;6141752;23;20009;-89
2023/01/24 11:25:16;;;;;;;21.05;8.75;;;;;;;;;;6195677;23;20044;-89
2023/01/24 11:27:48;;;;;;;16.08;7.57;;;;;;;;;;6139524;23;20417;-88
2023/01/24 11:30:34;;;;;;;13.75;6.72;;;;;;;;;;6168962;23;20375;-89
2023/01/24 11:33:05;;;;;;;14.70;7.20;;;;;;;;;;6141752;23;20009;-88
2023/01/24 11:35:47;;;;;;;18.15;6.47;;;;;;;;;;6164556;23;20001;-90
2023/01/24 11:38:19;;;;;;;16.13;6.03;;;;;;;;;;6136743;23;20013;-87
2023/01/24 11:40:58;;;;;;;18.00;6.95;;;;;;;;;;6161268;23;20001;-85
2023/01/24 11:43:38;;;;;;;16.23;6.32;;;;;;;;;;6113163;23;20005;-89
2023/01/24 11:46:16;;;;;;;17.33;7.68;;;;;;;;;;6137020;23;20385;-89
2023/01/24 11:49:15;;;;;;;16.60;6.55;;;;;;;;;;6136816;23;20063;-90
2023/01/24 11:51:45;;;;;;;16.02;6.93;;;;;;;;;;6165745;23;20009;-88
2023/01/24 11:54:35;;;;;;;24.10;7.90;;;;;;;;;;6161970;23;20369;-85
2023/01/24 11:57:28;;;;;;;22.80;8.25;;;;;;;;;;6183863;23;19997;-85
2023/01/24 12:00:18;;;;;;;28.20;7.57;;;;;;;;;;6158410;23;20021;-86
2023/01/24 12:03:16;;;;;;;19.70;8.05;;;;;;;;;;6161337;23;20009;-88
2023/01/24 12:06:21;;;;;;;22.55;8.10;;;;;;;;;;6163811;23;20009;-87
2023/01/24 12:09:13;;;;;;;26.10;9.25;;;;;;;;;;6164609;23;20281;-87
2023/01/24 12:12:04;;;;;;;14.80;6.35;;;;;;;;;;6172369;23;20016;-84
2023/01/24 12:15:03;;;;;;;24.17;8.33;;;;;;;;;;6166956;23;20435;-84
2023/01/24 12:18:10;;;;;;;16.92;7.03;;;;;;;;;;6175096;23;20012;-87
2023/01/24 12:20:47;;;;;;;19.52;7.53;;;;;;;;;;6162801;23;20016;-88
2023/01/24 12:23:20;;;;;;;24.05;9.45;;;;;;;;;;6162832;23;20040;-86
2023/01/24 12:25:45;;;;;;;20.92;8.38;;;;;;;;;;6165698;23;20005;-83
2023/01/24 12:28:27;;;;;;;25.38;9.68;;;;;;;;;;6141222;23;20016;-91
2023/01/24 12:30:55;;;;;;;15.43;6.47;;;;;;;;;;6175224;23;20012;-85
2023/01/24 12:33:31;;;;;;;16.45;7.13;;;;;;;;;;6151482;23;20056;-87
2023/01/24 12:36:00;;;;;;;20.60;8.82;;;;;;;;;;6143799;23;20005;-83
2023/01/24 12:38:32;;;;;;;23.27;9.80;;;;;;;;;;6112391;23;20020;-85
2023/01/24 12:41:33;;;;;;;22.00;7.32;;;;;;;;;;6174878;23;20072;-88
2023/01/24 12:44:18;;;;;;;15.35;8.02;;;;;;;;;;6161557;23;20369;-92
2023/01/24 12:47:18;;;;;;;17.75;7.15;;;;;;;;;;6163012;23;20132;-86
2023/01/24 12:49:59;;;;;;;21.45;9.00;;;;;;;;;;6190587;23;20035;-86
2023/01/24 12:52:27;;;;;;;25.92;11.40;;;;;;;;;;6171233;23;20021;-87
2023/01/24 12:54:54;;;;;;;20.23;8.52;;;;;;;;;;6187399;23;20416;-84
2023/01/24 12:57:29;;;;;;;14.35;6.78;;;;;;;;;;6160174;23;20001;-89
2023/01/24 12:59:54;;;;;;;17.48;7.28;;;;;;;;;;6161483;23;20001;-83
2023/01/24 13:02:57;;;;;;;18.23;8.90;;;;;;;;;;6161294;23;20004;-85
2023/01/24 13:05:44;;;;;;;15.85;6.88;;;;;;;;;;6189256;23;20005;-87
2023/01/24 13:08:47;;;;;;;16.65;6.85;;;;;;;;;;6139013;23;20430;-85
2023/01/24 13:11:23;;;;;;;17.63;7.35;;;;;;;;;;6133766;23;20028;-86
2023/01/24 13:14:03;;;;;;;22.38;8.80;;;;;;;;;;6138601;23;20008;-86
2023/01/24 13:16:44;;;;;;;22.23;7.80;;;;;;;;;;6162360;23;20013;-88
2023/01/24 13:19:18;;;;;;;18.98;8.80;;;;;;;;;;6137308;23;20001;-87
2023/01/24 13:22:34;;;;;;;18.83;8.70;;;;;;;;;;6190155;23;20012;-89
2023/01/24 13:25:18;;;;;;;20.55;8.40;;;;;;;;;;6139186;23;20013;-87
2023/01/24 13:28:05;;;;;;;16.55;7.75;;;;;;;;;;6166206;23;20055;-89
2023/01/24 13:30:36;;;;;;;31.73;10.48;;;;;;;;;;6171823;23;20016;-87
2023/01/24 13:33:02;;;;;;;23.40;10.27;;;;;;;;;;6193939;23;20076;-88
2023/01/24 13:35:28;;;;;;;27.88;10.70;;;;;;;;;;6142846;23;20423;-88
2023/01/24 13:38:05;;;;;;;21.40;9.27;;;;;;;;;;6164828;23;20436;-87
2023/01/24 13:40:34;;;;;;;23.55;11.05;;;;;;;;;;6145791;23;20037;-86
2023/01/24 13:43:01;;;;;;;25.40;11.15;;;;;;;;;;6167862;23;20413;-86
2023/01/24 13:45:30;;;;;;;25.92;10.25;;;;;;;;;;6139126;23;20001;-85
2023/01/24 13:47:57;;;;;;;33.65;12.55;;;;;;;;;;6191796;23;20005;-84
2023/01/24 13:50:32;;;;;;;33.83;12.75;;;;;;;;;;6168902;23;20020;-87
2023/01/24 13:52:58;;;;;;;24.88;9.95;;;;;;;;;;6166705;23;20087;-86
2023/01/24 13:55:24;;;;;;;31.73;12.80;;;;;;;;;;6162954;23;20005;-86
2023/01/24 13:58:13;;;;;;;30.83;12.57;;;;;;;;;;6189082;23;20548;-87
2023/01/24 14:00:41;;;;;;;22.08;10.30;;;;;;;;;;6162327;23;20016;-87
2023/01/24 14:03:27;;;;;;;23.60;8.43;;;;;;;;;;6164235;23;20005;-87
2023/01/24 14:06:05;;;;;;;34.53;14.05;;;;;;;;;;6168214;23;20015;-86
2023/01/24 14:08:33;;;;;;;20.33;8.85;;;;;;;;;;6174865;23;19997;-83
2023/01/24 14:11:05;;;;;;;26.05;11.32;;;;;;;;;;6145086;23;20464;-89
2023/01/24 14:13:49;;;;;;;25.63;9.50;;;;;;;;;;6190819;23;20005;-85
2023/01/24 14:16:25;;;;;;;25.05;11.18;;;;;;;;;;6160705;23;20032;-85
2023/01/24 14:19:07;;;;;;;26.30;10.90;;;;;;;;;;6186140;23;20005;-85
2023/01/24 14:22:00;;;;;;;21.92;9.15;;;;;;;;;;6185724;23;20012;-84
2023/01/24 14:24:32;;;;;;;22.80;9.98;;;;;;;;;;6184840;23;20352;-85
2023/01/24 14:27:14;;;;;;;22.73;9.02;;;;;;;;;;6185715;23;20005;-86
2023/01/24 14:29:41;;;;;;;25.02;11.38;;;;;;;;;;6149311;23;20078;-86
2023/01/24 14:32:19;;;;;;;24.27;10.35;;;;;;;;;;6158953;23;20098;-85
2023/01/24 14:34:47;;;;;;;26.25;10.93;;;;;;;;;;6160585;23;20023;-86
2023/01/24 14:37:13;;;;;;;25.83;10.95;;;;;;;;;;6134977;23;20059;-87
2023/01/24 14:39:38;;;;;;;28.65;12.65;;;;;;;;;;6158709;23;20002;-85
2023/01/24 14:42:14;;;;;;;35.80;14.55;;;;;;;;;;6135056;23;20040;-86
2023/01/24 14:44:50;;;;;;;31.60;12.90;;;;;;;;;;6138510;23;20447;-85
2023/01/24 14:47:15;;;;;;;33.85;13.18;;;;;;;;;;6141912;23;20020;-85
2023/01/24 14:49:45;;;;;;;26.45;12.13;;;;;;;;;;6195474;23;20001;-86
2023/01/24 14:52:25;;;;;;;27.55;12.95;;;;;;;;;;6185377;23;20028;-86
2023/01/24 14:55:07;;;;;;;33.03;12.65;;;;;;;;;;6134869;23;20021;-85
2023/01/24 14:57:32;;;;;;;34.00;12.35;;;;;;;;;;6159621;23;20464;-86
2023/01/24 15:00:15;;;;;;;32.80;12.07;;;;;;;;;;6159007;23;20009;-85
2023/01/24 15:02:57;;;;;;;21.20;9.90;;;;;;;;;;6135992;23;20001;-85
2023/01/24 15:05:27;;;;;;;28.52;11.63;;;;;;;;;;6135635;23;20009;-85
2023/01/24 15:07:53;;;;;;;30.13;12.45;;;;;;;;;;6169786;23;20059;-84
2023/01/24 15:10:29;;;;;;;22.15;9.38;;;;;;;;;;6160970;23;20100;-85
2023/01/24 15:12:56;;;;;;;26.35;11.75;;;;;;;;;;6161939;23;20088;-87
2023/01/24 15:15:21;;;;;;;27.90;11.68;;;;;;;;;;6133320;23;20005;-84
2023/01/24 15:17:48;;;;;;;31.50;11.75;;;;;;;;;;6135357;23;20393;-85
2023/01/24 15:20:18;;;;;;;33.08;12.05;;;;;;;;;;6136225;23;20001;-86
2023/01/24 15:22:49;;;;;;;24.30;10.70;;;;;;;;;;6165302;23;20078;-86
2023/01/24 15:25:35;;;;;;;25.90;11.05;;;;;;;;;;6137834;23;20012;-86
2023/01/24 15:28:31;;;;;;;24.63;9.45;;;;;;;;;;6183208;23;20001;-85
2023/01/24 15:30:58;;;;;;;32.22;14.50;;;;;;;;;;6120777;23;20425;-87
2023/01/24 15:33:24;;;;;;;28.70;14.90;;;;;;;;;;6147718;23;20020;-86
2023/01/24 15:35:51;;;;;;;29.75;13.32;;;;;;;;;;6160531;23;20001;-85
2023/01/24 15:38:17;;;;;;;40.55;15.80;;;;;;;;;;6207527;23;19992;-85
2023/01/24 15:41:01;;;;;;;35.40;14.77;;;;;;;;;;6157509;23;20005;-86
2023/01/24 15:43:48;;;;;;;32.75;13.23;;;;;;;;;;6180090;23;20001;-84
2023/01/24 15:49:17;;;;;;;31.63;12.82;;;;;;;;;;6174684;23;20039;-87
2023/01/24 15:51:43;;;;;;;27.95;11.68;;;;;;;;;;6192776;23;20001;-85
2023/01/24 15:54:13;;;;;;;29.95;12.52;;;;;;;;;;6139119;23;20005;-85
2023/01/24 15:56:39;;;;;;;31.45;12.00;;;;;;;;;;6137558;23;20021;-85
2023/01/24 15:59:15;;;;;;;32.75;12.02;;;;;;;;;;6134964;23;20344;-85
2023/01/24 16:01:41;;;;;;;26.42;11.73;;;;;;;;;;6160773;23;19997;-87
2023/01/24 16:04:14;;;;;;;49.40;19.85;;;;;;;;;;6185359;23;20420;-86
2023/01/24 16:06:40;;;;;;;73.32;24.25;;;;;;;;;;6166453;23;20001;-86
2023/01/24 16:09:05;;;;;;;25.25;11.65;;;;;;;;;;6191790;23;20013;-85
2023/01/24 16:11:31;;;;;;;27.05;12.55;;;;;;;;;;6134223;23;20032;-86
2023/01/24 16:13:57;;;;;;;37.42;16.83;;;;;;;;;;6133623;23;20395;-85
2023/01/24 16:16:22;;;;;;;23.70;10.80;;;;;;;;;;6110067;23;20032;-85
2023/01/24 16:18:48;;;;;;;27.25;11.43;;;;;;;;;;6135630;23;20001;-87
2023/01/24 16:21:13;;;;;;;24.83;11.60;;;;;;;;;;6158771;23;20472;-87